Melrose, New Mexico
Current Conditions -  °F | °C
As of 8:56 PM on Tuesday 25 Nov 2014 (Local Time) from K4MR Reporting Station
Clear Clear  
Wind Chill: 37°   Ceiling: Unl
Heat Index: 45°   Visibility: 10mi
Dew Point:   Wind: 21mph
Humidity: 22%   Direction: 270°W
Pressure: 30.11"   Gusts: NA
Location:  34.43°N, 103.63°W
Report Text: K4MR 260356Z AUTO 27018KT 10SM CLR 07/M13 A3011 RMK AO2 SLP191 T00741134
Loading
Personal Weather Stations






























Interactive Weather Map New forecast layout! Learn more

10-Day Weather Forecast

Advertisements
Track Severe Weather on mobile